createdAt,value
2023-04-11T00:00:54.417Z,9.50
2023-04-11T00:06:15.679Z,9.50
2023-04-11T00:11:37.454Z,9.40
2023-04-11T00:17:04.102Z,9.40
2023-04-11T00:22:27.683Z,9.30
2023-04-11T00:27:49.345Z,9.40
2023-04-11T00:33:10.481Z,9.30
2023-04-11T00:38:32.286Z,9.40
2023-04-11T00:43:54.438Z,9.60
2023-04-11T00:49:16.160Z,9.70
2023-04-11T00:54:37.790Z,9.60
2023-04-11T01:00:00.490Z,9.70
2023-04-11T01:05:22.378Z,9.70
2023-04-11T01:10:44.166Z,9.60
2023-04-11T01:16:07.068Z,9.60
2023-04-11T01:21:29.642Z,9.60
2023-04-11T01:26:52.232Z,9.60
2023-04-11T01:32:14.260Z,9.60
2023-04-11T01:37:36.152Z,9.60
2023-04-11T01:42:57.907Z,9.70
2023-04-11T01:48:20.609Z,9.70
2023-04-11T01:53:42.245Z,9.70
2023-04-11T01:59:03.748Z,9.60
2023-04-11T02:04:25.484Z,9.70
2023-04-11T02:09:47.225Z,9.80
2023-04-11T02:15:09.371Z,9.90
2023-04-11T02:20:30.721Z,9.90
2023-04-11T02:25:53.715Z,10.00
2023-04-11T02:31:15.166Z,10.00
2023-04-11T02:36:38.001Z,10.10
2023-04-11T02:41:59.380Z,10.10
2023-04-11T02:47:20.971Z,10.10
2023-04-11T02:52:45.956Z,10.10
2023-04-11T02:58:10.760Z,10.00
2023-04-11T03:03:32.326Z,9.90
2023-04-11T03:08:54.287Z,9.80
2023-04-11T03:14:16.052Z,9.60
2023-04-11T03:19:37.629Z,9.60
2023-04-11T03:24:59.337Z,9.50
2023-04-11T03:30:21.385Z,9.40
2023-04-11T03:35:43.127Z,9.30
2023-04-11T03:41:08.458Z,9.10
2023-04-11T03:46:30.098Z,9.00
2023-04-11T03:51:51.665Z,8.90
2023-04-11T03:57:13.080Z,8.80
2023-04-11T04:02:34.814Z,8.70
2023-04-11T04:08:01.000Z,8.60
2023-04-11T04:13:35.688Z,8.60
2023-04-11T04:19:06.300Z,8.60
2023-04-11T04:24:28.050Z,8.60
2023-04-11T04:30:04.098Z,8.30
2023-04-11T04:35:48.937Z,8.20
2023-04-11T04:41:16.311Z,8.20
2023-04-11T04:46:47.353Z,8.20
2023-04-11T04:52:09.575Z,8.20
2023-04-11T04:57:32.289Z,8.20
2023-04-11T05:02:55.229Z,8.10
2023-04-11T05:08:21.099Z,8.20
2023-04-11T05:13:42.716Z,7.90
2023-04-11T05:19:03.916Z,8.00
2023-04-11T05:24:28.806Z,7.90
2023-04-11T05:29:54.672Z,8.00
2023-04-11T05:35:15.926Z,7.80
2023-04-11T05:40:41.716Z,7.90
2023-04-11T05:46:03.867Z,7.70
2023-04-11T05:51:26.661Z,7.70
2023-04-11T05:56:47.856Z,7.70
2023-04-11T06:02:09.488Z,7.80
2023-04-11T06:07:32.870Z,7.70
2023-04-11T06:12:54.388Z,7.60
2023-04-11T06:18:16.177Z,7.60
2023-04-11T06:23:37.988Z,7.50
2023-04-11T06:28:59.505Z,7.50
2023-04-11T06:34:21.367Z,7.60
2023-04-11T06:39:42.934Z,7.60
2023-04-11T06:45:06.199Z,7.60
2023-04-11T06:50:27.688Z,7.60
2023-04-11T06:55:49.995Z,7.70
2023-04-11T07:01:15.017Z,7.60
2023-04-11T07:06:36.454Z,7.50
2023-04-11T07:11:58.070Z,7.60
2023-04-11T07:17:19.584Z,7.80
2023-04-11T07:22:44.216Z,7.80
2023-04-11T07:28:07.560Z,7.80
2023-04-11T07:33:28.916Z,7.90
2023-04-11T07:38:50.556Z,8.00
2023-04-11T07:44:12.164Z,7.90
2023-04-11T07:49:33.394Z,7.90
2023-04-11T07:54:55.991Z,7.90
2023-04-11T08:00:22.276Z,7.80
2023-04-11T08:05:43.664Z,7.90
2023-04-11T08:11:05.307Z,8.00
2023-04-11T08:16:26.830Z,7.90
2023-04-11T08:21:48.454Z,8.10
2023-04-11T08:27:09.840Z,7.90
2023-04-11T08:32:31.277Z,8.20
2023-04-11T08:37:52.757Z,8.20
2023-04-11T08:43:14.226Z,8.20
2023-04-11T08:48:36.262Z,8.40
2023-04-11T08:54:01.988Z,8.50
2023-04-11T08:59:23.631Z,8.80
2023-04-11T09:04:45.354Z,8.90
2023-04-11T09:10:20.320Z,9.20
2023-04-11T09:15:42.250Z,9.30
2023-04-11T09:21:06.673Z,9.50
2023-04-11T09:26:29.443Z,9.80
2023-04-11T09:31:50.704Z,9.90
2023-04-11T09:37:14.844Z,10.10
2023-04-11T09:42:36.118Z,10.70
2023-04-11T09:47:59.198Z,11.30
2023-04-11T09:53:21.080Z,11.40
2023-04-11T09:58:42.930Z,11.30
2023-04-11T10:04:04.936Z,11.30
2023-04-11T10:09:27.646Z,11.20
2023-04-11T10:14:48.795Z,10.80
2023-04-11T10:20:32.129Z,9.70
2023-04-11T10:25:56.118Z,9.30
2023-04-11T10:31:17.530Z,9.10
2023-04-11T10:37:02.298Z,9.10
2023-04-11T10:42:28.337Z,9.60
2023-04-11T10:47:58.727Z,9.90
2023-04-11T10:53:37.163Z,10.80
2023-04-11T10:58:58.859Z,11.30
2023-04-11T11:04:21.972Z,11.50
2023-04-11T11:09:49.618Z,11.20
2023-04-11T11:15:14.562Z,10.30
2023-04-11T11:20:40.073Z,9.10
2023-04-11T11:26:01.921Z,9.00
2023-04-11T11:31:34.154Z,8.40
2023-04-11T11:36:59.230Z,7.70
2023-04-11T11:42:21.180Z,7.30
2023-04-11T11:47:46.962Z,7.00
2023-04-11T11:53:22.204Z,7.20
2023-04-11T11:58:44.929Z,7.30
2023-04-11T12:04:12.645Z,7.50
2023-04-11T12:09:34.019Z,7.70
2023-04-11T12:14:55.940Z,7.80
2023-04-11T12:20:17.730Z,8.00
2023-04-11T12:25:41.042Z,8.30
2023-04-11T12:31:03.272Z,8.50
2023-04-11T12:36:25.869Z,8.80
2023-04-11T12:41:47.237Z,9.10
2023-04-11T12:47:08.958Z,9.30
2023-04-11T12:52:30.972Z,9.00
2023-04-11T12:57:52.242Z,8.80
2023-04-11T13:03:14.116Z,8.90
2023-04-11T13:08:35.903Z,9.10
2023-04-11T13:13:57.518Z,9.60
2023-04-11T13:19:19.305Z,9.70
2023-04-11T13:24:40.809Z,9.40
2023-04-11T13:30:04.966Z,9.50
2023-04-11T13:35:27.331Z,9.70
2023-04-11T13:40:48.727Z,9.80
2023-04-11T13:46:10.973Z,10.30
2023-04-11T13:51:35.804Z,10.50
2023-04-11T13:56:59.224Z,10.70
2023-04-11T14:02:20.921Z,10.70
2023-04-11T14:07:42.401Z,11.00
2023-04-11T14:13:05.523Z,11.20
2023-04-11T14:18:27.051Z,11.60
2023-04-11T14:23:48.921Z,11.50
2023-04-11T14:29:10.915Z,11.30
2023-04-11T14:34:32.156Z,10.80
2023-04-11T14:39:54.168Z,10.70
2023-04-11T14:45:15.402Z,10.50
2023-04-11T14:50:36.901Z,10.40
2023-04-11T14:55:58.277Z,10.30
2023-04-11T15:01:22.867Z,10.30
2023-04-11T15:06:44.571Z,10.20
2023-04-11T15:12:06.180Z,10.10
2023-04-11T15:17:27.541Z,10.10
2023-04-11T15:22:48.968Z,10.10
2023-04-11T15:28:10.425Z,10.20
2023-04-11T15:33:32.093Z,10.10
2023-04-11T15:38:53.692Z,10.20
2023-04-11T15:44:15.782Z,10.50
2023-04-11T15:49:37.652Z,10.90
2023-04-11T15:54:59.113Z,11.10
2023-04-11T16:00:22.676Z,11.20
2023-04-11T16:05:45.118Z,10.90
2023-04-11T16:11:06.935Z,10.70
2023-04-11T16:16:28.277Z,10.20
2023-04-11T16:21:49.873Z,10.00
2023-04-11T16:27:11.291Z,9.80
2023-04-11T16:32:36.056Z,9.90
2023-04-11T16:37:57.354Z,9.60
2023-04-11T16:43:18.914Z,9.40
2023-04-11T16:48:41.043Z,9.60
2023-04-11T16:54:04.017Z,9.30
2023-04-11T16:59:25.640Z,9.20
2023-04-11T17:04:47.312Z,8.90
2023-04-11T17:10:09.334Z,8.90
2023-04-11T17:15:31.347Z,8.20
2023-04-11T17:20:52.847Z,7.90
2023-04-11T17:26:15.453Z,8.00
2023-04-11T17:31:36.725Z,7.50
2023-04-11T17:36:58.896Z,7.50
2023-04-11T17:42:21.303Z,7.30
2023-04-11T17:47:42.749Z,7.20
2023-04-11T17:53:05.019Z,7.10
2023-04-11T17:58:26.559Z,6.90
2023-04-11T18:03:48.561Z,6.40
2023-04-11T18:09:09.795Z,6.50
2023-04-11T18:14:33.084Z,6.30
2023-04-11T18:19:54.391Z,6.10
2023-04-11T18:25:15.805Z,5.70
2023-04-11T18:30:37.197Z,5.70
2023-04-11T18:35:58.734Z,5.60
2023-04-11T18:41:20.292Z,5.70
2023-04-11T18:46:41.795Z,5.50
2023-04-11T18:52:03.105Z,5.50
2023-04-11T18:57:29.174Z,5.50
2023-04-11T19:02:52.094Z,5.50
2023-04-11T19:08:13.620Z,5.40
2023-04-11T19:13:35.144Z,5.20
2023-04-11T19:18:57.998Z,5.10
2023-04-11T19:24:19.197Z,5.10
2023-04-11T19:29:40.755Z,5.10
2023-04-11T19:35:02.376Z,5.00
2023-04-11T19:40:23.912Z,4.90
2023-04-11T19:45:46.487Z,4.80
2023-04-11T19:51:08.617Z,4.60
2023-04-11T19:56:29.977Z,4.50
2023-04-11T20:01:53.811Z,4.30
2023-04-11T20:07:15.712Z,4.10
2023-04-11T20:12:37.336Z,4.10
2023-04-11T20:17:59.251Z,3.90
2023-04-11T20:23:21.603Z,3.80
2023-04-11T20:28:43.151Z,3.70
2023-04-11T20:34:04.584Z,3.60
2023-04-11T20:39:29.413Z,3.40
2023-04-11T20:44:51.191Z,3.30
2023-04-11T20:50:14.897Z,3.10
2023-04-11T20:55:36.204Z,3.00
2023-04-11T21:00:57.821Z,2.90
2023-04-11T21:06:19.240Z,2.70
2023-04-11T21:11:41.108Z,2.60
2023-04-11T21:17:03.703Z,2.50
2023-04-11T21:22:25.020Z,2.40
2023-04-11T21:27:46.915Z,2.40
2023-04-11T21:33:10.002Z,2.40
2023-04-11T21:38:35.716Z,2.40
2023-04-11T21:43:57.183Z,2.40
2023-04-11T21:49:18.451Z,2.50
2023-04-11T21:54:42.427Z,2.40
2023-04-11T22:00:04.655Z,2.50
2023-04-11T22:05:33.912Z,2.50
2023-04-11T22:10:55.775Z,2.50
2023-04-11T22:16:17.140Z,2.50
2023-04-11T22:21:39.419Z,2.50
2023-04-11T22:27:04.294Z,2.50
2023-04-11T22:32:26.651Z,2.50
2023-04-11T22:37:48.308Z,2.40
2023-04-11T22:43:10.768Z,2.30
2023-04-11T22:48:31.981Z,2.20
2023-04-11T22:53:54.022Z,2.20
2023-04-11T22:59:16.186Z,2.10
2023-04-11T23:04:37.727Z,2.20
2023-04-11T23:10:04.381Z,2.20
2023-04-11T23:15:25.667Z,2.10
2023-04-11T23:20:49.446Z,2.00
2023-04-11T23:26:22.709Z,2.00
2023-04-11T23:31:44.183Z,1.90
2023-04-11T23:37:05.756Z,1.80
2023-04-11T23:42:27.368Z,1.70
2023-04-11T23:47:51.861Z,1.60
2023-04-11T23:53:13.307Z,1.50
2023-04-11T23:58:35.088Z,1.40
